Time;durP1;ratioP1;P1;durP2;ratioP2;P2;SDS_P1;SDS_P2;PMS_P1;PMS_P2;Temp;Humidity;BMP_temperature;BMP_pressure;BME280_temperature;BME280_humidity;BME280_pressure;Samples;Min_cycle;Max_cycle;Signal;HPM_P1;HPM_P2
2023/05/02 04:00:56;;;;;;;0.60;0.20;;;15.10;99.90;;;;;;5657215;23;21034;-77
2023/05/02 04:03:25;;;;;;;0.60;0.10;;;;;;;;;;4937713;29;20458;-78
2023/05/02 04:05:56;;;;;;;0.60;0.10;;;14.90;99.90;;;;;;4946167;29;20451;-78
2023/05/02 04:08:27;;;;;;;0.60;0.10;;;;;;;;;;4945065;29;20460;-78
2023/05/02 04:10:55;;;;;;;0.60;0.20;;;14.80;99.90;;;;;;4943988;29;20485;-78
2023/05/02 04:13:23;;;;;;;0.60;0.10;;;14.90;99.90;;;;;;4924108;29;20565;-78
2023/05/02 04:15:51;;;;;;;0.60;0.20;;;14.80;99.90;;;;;;4930355;23;20852;-76
2023/05/02 04:18:20;;;;;;;0.60;0.10;;;14.90;99.90;;;;;;4916419;29;20486;-76
2023/05/02 04:20:48;;;;;;;0.67;0.37;;;14.90;99.90;;;;;;4911860;29;20443;-77
2023/05/02 04:23:16;;;;;;;0.60;0.10;;;14.90;99.90;;;;;;4916016;29;20569;-77
2023/05/02 04:25:52;;;;;;;0.60;0.10;;;14.80;99.90;;;;;;4916107;29;20799;-75
2023/05/02 04:28:20;;;;;;;0.60;0.10;;;14.80;99.90;;;;;;4916027;29;20468;-75
2023/05/02 04:30:48;;;;;;;0.60;0.10;;;14.80;99.90;;;;;;4911740;29;20470;-75
2023/05/02 04:33:17;;;;;;;0.60;0.10;;;14.90;99.90;;;;;;4914072;29;20505;-75
2023/05/02 04:35:46;;;;;;;0.60;0.10;;;14.90;99.90;;;;;;4915757;29;20458;-75
2023/05/02 04:38:14;;;;;;;0.60;0.10;;;14.90;99.90;;;;;;4916324;29;20479;-76
2023/05/02 04:40:42;;;;;;;0.60;0.10;;;14.90;99.90;;;;;;4915594;29;20493;-76
2023/05/02 04:43:10;;;;;;;0.60;0.10;;;14.80;99.90;;;;;;4915858;29;20462;-76
2023/05/02 04:45:37;;;;;;;0.60;0.10;;;14.80;99.90;;;;;;4909079;29;20982;-76
2023/05/02 04:48:06;;;;;;;0.60;0.20;;;14.80;99.90;;;;;;4916249;29;20452;-75
2023/05/02 04:50:33;;;;;;;0.60;0.20;;;14.80;99.90;;;;;;4921292;29;20456;-75
2023/05/02 04:53:03;;;;;;;1.37;0.73;;;14.70;99.90;;;;;;4924493;29;20454;-74
2023/05/02 04:55:30;;;;;;;0.60;0.10;;;14.70;99.90;;;;;;4930453;29;20484;-76
2023/05/02 04:57:58;;;;;;;0.60;0.10;;;14.70;99.90;;;;;;4909256;29;20489;-76
2023/05/02 05:00:26;;;;;;;0.60;0.10;;;14.80;99.90;;;;;;4920056;29;20454;-76
2023/05/02 05:02:54;;;;;;;0.60;0.10;;;14.80;99.90;;;;;;4914952;29;20523;-76
2023/05/02 05:05:22;;;;;;;0.60;0.10;;;14.70;99.90;;;;;;4927528;29;20482;-76
2023/05/02 05:07:51;;;;;;;1.97;1.43;;;14.70;99.90;;;;;;4911539;29;20565;-75
2023/05/02 05:10:20;;;;;;;0.60;0.30;;;14.60;99.90;;;;;;4913943;29;20461;-75
2023/05/02 05:12:48;;;;;;;0.60;0.20;;;14.60;99.90;;;;;;4920072;29;20440;-76
2023/05/02 05:15:17;;;;;;;0.60;0.10;;;14.50;99.90;;;;;;4919586;29;20540;-76
2023/05/02 05:17:45;;;;;;;0.60;0.10;;;14.50;99.90;;;;;;4920878;29;20496;-75
2023/05/02 05:20:13;;;;;;;0.67;0.37;;;14.50;99.90;;;;;;4923395;29;20449;-75
2023/05/02 05:22:42;;;;;;;6.10;1.30;;;14.40;99.90;;;;;;4923318;29;20449;-76
2023/05/02 05:25:10;;;;;;;0.60;0.20;;;14.30;99.90;;;;;;4919412;29;20547;-75
2023/05/02 05:27:40;;;;;;;0.60;0.20;;;14.30;99.90;;;;;;4919840;29;20451;-76
2023/05/02 05:30:08;;;;;;;0.60;0.10;;;14.30;99.90;;;;;;4920068;29;20519;-75
2023/05/02 05:32:36;;;;;;;0.60;0.10;;;14.30;99.90;;;;;;4920223;29;20454;-77
2023/05/02 05:35:05;;;;;;;0.60;0.20;;;14.40;99.90;;;;;;4910158;29;20964;-75
2023/05/02 05:37:33;;;;;;;0.80;0.37;;;14.40;99.90;;;;;;4919546;29;20468;-76
2023/05/02 05:40:00;;;;;;;0.90;0.40;;;14.30;99.90;;;;;;4917359;29;20471;-75
2023/05/02 05:42:29;;;;;;;0.60;0.10;;;14.30;99.90;;;;;;4909089;29;20547;-76
2023/05/02 05:44:58;;;;;;;0.60;0.10;;;14.30;99.90;;;;;;4910981;29;20473;-76
2023/05/02 05:47:26;;;;;;;0.93;0.73;;;14.20;99.90;;;;;;4911583;29;20468;-75
2023/05/02 05:49:54;;;;;;;0.60;0.20;;;14.20;99.90;;;;;;4909311;29;20511;-74
2023/05/02 05:52:22;;;;;;;0.60;0.20;;;14.10;99.90;;;;;;4910761;29;20453;-76
2023/05/02 05:54:54;;;;;;;1.03;0.60;;;14.30;99.90;;;;;;4917494;29;20477;-75
2023/05/02 05:57:22;;;;;;;2.53;1.10;;;14.30;99.90;;;;;;4918712;29;20445;-77
2023/05/02 05:59:50;;;;;;;0.80;0.20;;;14.30;99.90;;;;;;4910948;29;20508;-77
2023/05/02 06:02:20;;;;;;;0.60;0.10;;;14.30;99.90;;;;;;4908943;29;20441;-77
2023/05/02 06:04:47;;;;;;;0.60;0.10;;;14.40;99.90;;;;;;4911657;29;20461;-77
2023/05/02 06:07:15;;;;;;;0.60;0.10;;;14.40;99.90;;;;;;4939265;29;20453;-75
2023/05/02 06:09:43;;;;;;;0.70;0.47;;;14.40;99.90;;;;;;4938076;29;20448;-76
2023/05/02 06:12:11;;;;;;;0.60;0.20;;;14.40;99.90;;;;;;4922957;29;20931;-75
2023/05/02 06:14:39;;;;;;;0.60;0.10;;;14.50;99.90;;;;;;4918563;29;20488;-75
2023/05/02 06:17:07;;;;;;;1.07;0.97;;;14.50;99.90;;;;;;4919467;29;20473;-76
2023/05/02 06:19:36;;;;;;;0.70;0.63;;;14.50;99.90;;;;;;4918902;29;20995;-76
2023/05/02 06:22:04;;;;;;;28.10;26.20;;;14.50;99.90;;;;;;4919116;29;20456;-76
2023/05/02 06:24:31;;;;;;;0.90;0.20;;;14.50;99.90;;;;;;4906073;29;20864;-76
2023/05/02 06:26:59;;;;;;;0.60;0.10;;;14.50;99.90;;;;;;4899917;29;20458;-76
2023/05/02 06:29:27;;;;;;;1.00;0.93;;;14.50;99.90;;;;;;4908306;29;20527;-77
2023/05/02 06:31:56;;;;;;;0.60;0.10;;;14.40;99.90;;;;;;4899226;29;20455;-76
2023/05/02 06:34:25;;;;;;;1.10;0.30;;;14.60;99.90;;;;;;4899203;29;20454;-76
2023/05/02 06:36:56;;;;;;;0.60;0.10;;;14.60;99.90;;;;;;4900109;29;20439;-76
2023/05/02 06:39:24;;;;;;;0.60;0.20;;;14.70;99.90;;;;;;4903435;29;21058;-78
2023/05/02 06:41:56;;;;;;;0.60;0.17;;;14.70;99.90;;;;;;4899193;29;20972;-75
2023/05/02 06:44:24;;;;;;;0.90;0.20;;;14.70;99.90;;;;;;4905959;29;20452;-75
2023/05/02 06:46:52;;;;;;;2.17;1.60;;;;;;;;;;4908253;29;20449;-74
2023/05/02 06:49:20;;;;;;;0.60;0.10;;;14.80;99.90;;;;;;4899538;29;20462;-75
2023/05/02 06:51:47;;;;;;;0.60;0.10;;;14.90;99.90;;;;;;4916219;29;20803;-76
2023/05/02 06:54:17;;;;;;;0.67;0.20;;;;;;;;;;4919950;29;20822;-77
2023/05/02 06:56:45;;;;;;;0.60;0.20;;;15.00;99.90;;;;;;4918032;29;20805;-75
2023/05/02 06:59:15;;;;;;;0.60;0.20;;;15.10;99.90;;;;;;4919857;29;20545;-74
2023/05/02 07:01:43;;;;;;;0.60;0.10;;;15.10;99.90;;;;;;4903912;29;21073;-76
2023/05/02 07:04:11;;;;;;;0.60;0.10;;;;;;;;;;4915822;29;20454;-75
2023/05/02 07:06:40;;;;;;;0.60;0.10;;;15.20;99.90;;;;;;4918012;29;20537;-75
2023/05/02 07:09:08;;;;;;;0.60;0.10;;;15.20;99.90;;;;;;4917557;29;20511;-75
2023/05/02 07:11:37;;;;;;;0.60;0.10;;;15.20;99.90;;;;;;4916461;29;20466;-75
2023/05/02 07:14:05;;;;;;;0.60;0.10;;;15.20;99.90;;;;;;4918536;29;20475;-75
2023/05/02 07:16:33;;;;;;;0.60;0.10;;;15.20;99.90;;;;;;4897448;29;20512;-75
2023/05/02 07:19:03;;;;;;;2.53;2.20;;;15.30;99.90;;;;;;4898572;29;20484;-74
2023/05/02 07:21:31;;;;;;;0.70;0.40;;;15.30;99.90;;;;;;4902862;29;20945;-75
2023/05/02 07:23:59;;;;;;;0.60;0.10;;;15.30;99.90;;;;;;4912622;29;20468;-76
2023/05/02 07:26:28;;;;;;;0.60;0.10;;;15.40;99.90;;;;;;4919760;29;20527;-77
2023/05/02 07:28:57;;;;;;;0.60;0.10;;;15.40;99.90;;;;;;4919583;29;20545;-76
2023/05/02 07:31:25;;;;;;;0.60;0.10;;;15.50;99.90;;;;;;4919063;29;20540;-76
2023/05/02 07:33:53;;;;;;;0.60;0.10;;;15.60;99.90;;;;;;4919772;29;20537;-71
2023/05/02 07:36:21;;;;;;;3.80;1.83;;;15.60;99.90;;;;;;4916045;29;20473;-71
2023/05/02 07:38:49;;;;;;;0.60;0.10;;;15.60;99.90;;;;;;4916136;29;20482;-72
2023/05/02 07:41:17;;;;;;;3.80;2.53;;;15.50;99.90;;;;;;4916025;29;20446;-73
2023/05/02 07:43:46;;;;;;;0.70;0.20;;;15.50;99.90;;;;;;4910134;29;21018;-72
2023/05/02 07:46:15;;;;;;;0.60;0.20;;;15.50;99.90;;;;;;4897215;29;20471;-72
2023/05/02 07:48:43;;;;;;;0.60;0.10;;;15.50;99.90;;;;;;4897604;29;20453;-71
2023/05/02 07:51:11;;;;;;;0.60;0.13;;;15.50;99.90;;;;;;4916631;29;20552;-72
2023/05/02 07:53:39;;;;;;;1.53;1.43;;;15.50;99.90;;;;;;4915621;29;20454;-73
2023/05/02 07:56:08;;;;;;;2.40;0.87;;;15.50;99.90;;;;;;4916172;29;20482;-73
2023/05/02 07:58:36;;;;;;;2.83;1.70;;;15.50;99.90;;;;;;4915959;29;20951;-71
2023/05/02 08:01:04;;;;;;;0.60;0.13;;;15.50;99.90;;;;;;4916070;29;20477;-72
2023/05/02 08:03:33;;;;;;;0.83;0.57;;;15.50;99.90;;;;;;4904146;29;20950;-73
2023/05/02 08:06:02;;;;;;;0.90;0.40;;;15.40;99.90;;;;;;4896365;29;20956;-73
2023/05/02 08:08:30;;;;;;;0.80;0.53;;;15.30;99.90;;;;;;4896556;29;20508;-71
2023/05/02 08:10:58;;;;;;;0.60;0.10;;;;;;;;;;4897098;29;20445;-71
2023/05/02 08:13:27;;;;;;;0.60;0.20;;;15.30;99.90;;;;;;4896749;29;20458;-71
2023/05/02 08:15:56;;;;;;;5.60;2.87;;;15.30;99.90;;;;;;4914889;29;20549;-71
2023/05/02 08:18:24;;;;;;;0.70;0.30;;;15.30;99.90;;;;;;4915552;29;20544;-72
2023/05/02 08:20:55;;;;;;;0.80;0.70;;;15.30;99.90;;;;;;4915653;29;20520;-72
2023/05/02 08:23:23;;;;;;;1.23;1.13;;;15.30;99.90;;;;;;4915690;29;20466;-72
2023/05/02 08:25:51;;;;;;;0.60;0.10;;;15.40;99.90;;;;;;4917018;29;20466;-72
2023/05/02 08:28:19;;;;;;;0.60;0.10;;;15.50;99.90;;;;;;4900893;29;20447;-72
2023/05/02 08:30:47;;;;;;;0.60;0.10;;;15.60;99.90;;;;;;4900499;29;20450;-72
2023/05/02 08:33:15;;;;;;;0.60;0.10;;;15.60;99.90;;;;;;4906041;29;20470;-72
2023/05/02 08:35:43;;;;;;;0.60;0.10;;;15.60;99.90;;;;;;4919482;29;20544;-71
2023/05/02 08:38:12;;;;;;;0.90;0.43;;;15.60;99.90;;;;;;4906560;29;20451;-72
2023/05/02 08:40:41;;;;;;;0.60;0.10;;;15.60;99.90;;;;;;4902002;29;20850;-71
2023/05/02 08:43:11;;;;;;;0.70;0.30;;;15.60;99.90;;;;;;4903424;29;20454;-72
2023/05/02 08:45:41;;;;;;;0.60;0.10;;;15.70;99.90;;;;;;4918566;29;20482;-77
2023/05/02 08:48:11;;;;;;;0.60;0.10;;;15.60;99.90;;;;;;4914612;29;20453;-77
2023/05/02 08:50:41;;;;;;;2.33;2.23;;;15.60;99.90;;;;;;4914647;29;20535;-76
2023/05/02 08:53:10;;;;;;;0.60;0.10;;;15.50;99.90;;;;;;4920413;29;20466;-78
2023/05/02 08:55:40;;;;;;;0.60;0.10;;;15.50;99.90;;;;;;4919785;29;21037;-76
2023/05/02 08:58:10;;;;;;;1.53;1.37;;;15.40;99.90;;;;;;4920568;29;20453;-76
2023/05/02 09:00:40;;;;;;;0.60;0.23;;;15.40;99.90;;;;;;4919671;29;20488;-76
2023/05/02 09:03:16;;;;;;;0.60;0.10;;;15.40;99.90;;;;;;4912678;29;20488;-76
2023/05/02 09:05:51;;;;;;;0.60;0.10;;;15.50;99.90;;;;;;4909966;29;20476;-76
2023/05/02 09:08:22;;;;;;;0.60;0.10;;;15.40;99.90;;;;;;4919539;29;20458;-76
2023/05/02 09:10:52;;;;;;;0.60;0.20;;;;;;;;;;4919740;29;20452;-76
2023/05/02 09:13:30;;;;;;;0.60;0.10;;;15.40;99.90;;;;;;4915604;29;20454;-77
2023/05/02 09:15:59;;;;;;;0.70;0.40;;;15.40;99.90;;;;;;4910392;29;20479;-76
2023/05/02 09:18:32;;;;;;;0.60;0.10;;;15.40;99.90;;;;;;4920476;29;20461;-76
2023/05/02 09:21:01;;;;;;;0.60;0.10;;;15.40;99.90;;;;;;4912531;29;20480;-76
2023/05/02 09:23:33;;;;;;;0.60;0.10;;;15.40;99.90;;;;;;4904029;29;20462;-77
2023/05/02 09:26:11;;;;;;;0.60;0.10;;;15.50;99.90;;;;;;4909246;29;20480;-76
2023/05/02 09:28:41;;;;;;;0.60;0.10;;;15.50;99.90;;;;;;4912686;29;20465;-77
2023/05/02 09:31:10;;;;;;;0.60;0.10;;;15.60;99.90;;;;;;4915916;29;20450;-77
2023/05/02 09:33:38;;;;;;;0.60;0.20;;;15.70;99.90;;;;;;4925251;29;21003;-77
2023/05/02 09:36:07;;;;;;;0.60;0.10;;;15.90;99.90;;;;;;4915555;29;20484;-77
2023/05/02 09:38:35;;;;;;;0.60;0.10;;;16.00;99.90;;;;;;4901470;29;20507;-76
2023/05/02 09:41:05;;;;;;;0.70;0.53;;;16.10;99.90;;;;;;4917384;29;20497;-77
2023/05/02 09:43:33;;;;;;;0.60;0.10;;;16.10;99.90;;;;;;4921052;29;20560;-76
2023/05/02 09:46:02;;;;;;;0.60;0.20;;;16.20;99.90;;;;;;4913459;29;20468;-77
2023/05/02 09:48:33;;;;;;;0.60;0.20;;;16.20;99.90;;;;;;4915696;29;20506;-76
2023/05/02 09:51:01;;;;;;;1.03;0.63;;;16.30;99.90;;;;;;4927643;29;20450;-77
2023/05/02 09:53:31;;;;;;;1.33;0.83;;;16.40;99.90;;;;;;4909981;29;20468;-76
2023/05/02 09:56:03;;;;;;;4.20;2.53;;;16.50;99.90;;;;;;4916029;29;20614;-77
2023/05/02 09:58:32;;;;;;;0.93;0.73;;;16.40;99.90;;;;;;4921510;29;20447;-77
2023/05/02 10:13:34;;;;;;;0.60;0.13;;;;;;;;;;5151241;27;20725;-78
2023/05/02 10:16:06;;;;;;;0.60;0.10;;;17.30;99.90;;;;;;5151493;27;20438;-78
2023/05/02 10:18:48;;;;;;;0.60;0.10;;;17.30;99.90;;;;;;5151262;27;20514;-78
2023/05/02 10:21:19;;;;;;;0.60;0.10;;;17.30;99.90;;;;;;5151180;27;20469;-79
2023/05/02 10:23:52;;;;;;;0.60;0.10;;;;;;;;;;5151074;27;20462;-78
2023/05/02 10:26:21;;;;;;;0.60;0.10;;;17.10;99.90;;;;;;5150864;27;20898;-78
2023/05/02 10:28:51;;;;;;;0.60;0.10;;;;;;;;;;5151588;27;20441;-80
2023/05/02 10:31:19;;;;;;;0.60;0.10;;;17.10;99.90;;;;;;5150899;27;21009;-79
2023/05/02 10:33:50;;;;;;;0.60;0.20;;;17.10;99.90;;;;;;5151239;27;20474;-79
2023/05/02 10:36:21;;;;;;;0.60;0.20;;;17.10;99.90;;;;;;5150495;27;20442;-78
2023/05/02 10:38:51;;;;;;;0.60;0.23;;;17.10;99.90;;;;;;5150432;27;20455;-78
2023/05/02 10:41:22;;;;;;;0.60;0.10;;;17.20;99.90;;;;;;5150576;27;20472;-77
2023/05/02 10:43:52;;;;;;;0.60;0.10;;;17.30;99.90;;;;;;5150559;27;20468;-82
2023/05/02 10:46:33;;;;;;;1.67;1.57;;;17.30;99.90;;;;;;5150664;27;20846;-80
2023/05/02 10:49:03;;;;;;;1.63;0.60;;;17.20;99.90;;;;;;5150474;27;20827;-78
2023/05/02 10:51:32;;;;;;;0.60;0.10;;;17.10;99.90;;;;;;5150281;27;20447;-79
2023/05/02 10:54:19;;;;;;;0.60;0.20;;;17.10;99.90;;;;;;5150008;27;20454;-81
2023/05/02 10:57:07;;;;;;;0.60;0.10;;;17.10;99.90;;;;;;5150158;27;20448;-78
2023/05/02 10:59:38;;;;;;;0.60;0.13;;;17.00;99.90;;;;;;5150769;27;20446;-79
2023/05/02 11:02:45;;;;;;;0.60;0.10;;;17.10;99.90;;;;;;5145859;27;20473;-81
2023/05/02 11:05:13;;;;;;;0.60;0.10;;;17.40;99.90;;;;;;5128947;27;20914;-77
2023/05/02 11:07:41;;;;;;;1.13;0.87;;;;;;;;;;5129065;28;20507;-80
2023/05/02 11:10:26;;;;;;;0.60;0.20;;;17.70;99.90;;;;;;5129817;28;20514;-79
2023/05/02 11:12:55;;;;;;;0.80;0.30;;;17.90;99.90;;;;;;5123739;28;20451;-78
2023/05/02 11:15:56;;;;;;;0.60;0.10;;;17.90;99.90;;;;;;5115369;28;20446;-78
2023/05/02 11:18:24;;;;;;;0.60;0.13;;;17.90;99.90;;;;;;5115388;28;20443;-78
2023/05/02 11:20:52;;;;;;;0.60;0.20;;;17.80;99.90;;;;;;5126372;27;20957;-77
2023/05/02 11:23:25;;;;;;;0.70;0.50;;;17.70;99.90;;;;;;5123457;27;20479;-81
2023/05/02 11:25:55;;;;;;;0.60;0.10;;;17.70;99.90;;;;;;5115655;28;20495;-78
2023/05/02 11:28:46;;;;;;;0.60;0.20;;;17.80;99.90;;;;;;5115447;28;20442;-78
2023/05/02 11:32:03;;;;;;;0.60;0.10;;;18.00;99.90;;;;;;5115579;28;20420;-78
2023/05/02 11:34:44;;;;;;;0.60;0.10;;;18.30;99.90;;;;;;5115573;28;20473;-79
2023/05/02 11:37:15;;;;;;;0.60;0.20;;;18.40;99.90;;;;;;5116818;28;20476;-78
2023/05/02 11:39:44;;;;;;;0.60;0.30;;;18.50;99.90;;;;;;5116660;28;21115;-79
2023/05/02 11:42:28;;;;;;;4.70;1.80;;;18.60;99.90;;;;;;5118534;28;20528;-79
2023/05/02 11:44:56;;;;;;;1.20;0.40;;;18.50;99.90;;;;;;5115762;28;20902;-78
2023/05/02 11:47:28;;;;;;;0.60;0.17;;;18.40;99.90;;;;;;5116006;28;20442;-78
2023/05/02 11:49:59;;;;;;;0.60;0.10;;;18.30;99.90;;;;;;5117523;27;20527;-78
2023/05/02 11:52:27;;;;;;;0.60;0.10;;;;;;;;;;5136911;27;20909;-80
2023/05/02 11:54:55;;;;;;;0.60;0.20;;;18.40;99.90;;;;;;5137752;27;20458;-78
2023/05/02 11:57:24;;;;;;;1.07;0.83;;;18.30;99.90;;;;;;5140245;27;20445;-78
2023/05/02 11:59:52;;;;;;;0.60;0.10;;;;;;;;;;5139587;27;20435;-79
2023/05/02 12:02:21;;;;;;;0.60;0.10;;;;;;;;;;5140481;27;20841;-80
2023/05/02 12:04:50;;;;;;;0.60;0.20;;;18.00;99.90;;;;;;5141406;27;20457;-79
2023/05/02 12:07:19;;;;;;;0.60;0.10;;;18.10;99.90;;;;;;5120027;28;20443;-77
2023/05/02 12:09:54;;;;;;;0.60;0.10;;;18.10;99.90;;;;;;5119853;28;20504;-77
2023/05/02 12:12:22;;;;;;;0.60;0.20;;;18.10;99.90;;;;;;5119010;28;20446;-79
2023/05/02 12:14:51;;;;;;;0.60;0.10;;;18.00;99.90;;;;;;5119585;28;20460;-79
2023/05/02 12:17:20;;;;;;;0.60;0.10;;;17.90;99.90;;;;;;5118346;28;20478;-79
2023/05/02 12:19:48;;;;;;;1.57;0.43;;;17.90;99.90;;;;;;5119348;28;20440;-78
2023/05/02 12:22:17;;;;;;;0.60;0.20;;;17.90;99.90;;;;;;5118092;28;20478;-80
2023/05/02 12:24:48;;;;;;;0.70;0.20;;;17.80;99.90;;;;;;5119236;28;20826;-81
2023/05/02 12:27:16;;;;;;;0.60;0.20;;;17.80;99.90;;;;;;5117695;28;20463;-80
2023/05/02 12:29:46;;;;;;;0.60;0.10;;;17.80;99.90;;;;;;5118510;28;20436;-77
2023/05/02 12:32:15;;;;;;;0.60;0.20;;;17.90;99.90;;;;;;5118679;28;20451;-79
2023/05/02 12:34:43;;;;;;;0.70;0.40;;;17.90;99.90;;;;;;5123998;28;20541;-79
2023/05/02 12:37:22;;;;;;;0.60;0.10;;;18.00;99.90;;;;;;5120965;28;20598;-79
2023/05/02 12:39:55;;;;;;;0.60;0.20;;;18.10;99.90;;;;;;5121025;28;20511;-79
2023/05/02 12:42:27;;;;;;;0.60;0.20;;;18.30;99.90;;;;;;5119645;28;20482;-78
2023/05/02 12:44:56;;;;;;;0.60;0.10;;;;;;;;;;5118113;28;20987;-81
2023/05/02 12:47:26;;;;;;;0.60;0.20;;;18.70;99.90;;;;;;5123928;28;20467;-80
2023/05/02 12:49:55;;;;;;;0.60;0.20;;;;;;;;;;5120900;28;20489;-78
2023/05/02 12:52:58;;;;;;;1.00;0.67;;;19.00;99.90;;;;;;5123834;28;20530;-79
2023/05/02 12:55:28;;;;;;;0.60;0.10;;;;;;;;;;5121253;28;20475;-79
2023/05/02 12:58:00;;;;;;;0.60;0.10;;;;;;;;;;5119893;28;20458;-80
2023/05/02 13:00:29;;;;;;;0.60;0.20;;;;;;;;;;5122392;28;20797;-79
2023/05/02 13:02:58;;;;;;;0.60;0.10;;;;;;;;;;5118529;28;20506;-79
2023/05/02 13:05:27;;;;;;;0.60;0.20;;;;;;;;;;5124151;28;20469;-81
2023/05/02 13:07:57;;;;;;;0.90;0.53;;;;;;;;;;5123079;28;20971;-80
2023/05/02 13:10:26;;;;;;;0.60;0.20;;;;;;;;;;5125153;27;20534;-79
2023/05/02 13:12:56;;;;;;;1.83;0.87;;;;;;;;;;5141044;27;20557;-81
2023/05/02 13:15:24;;;;;;;0.60;0.20;;;;;;;;;;5140304;27;20443;-79
2023/05/02 13:17:53;;;;;;;0.60;0.17;;;;;;;;;;5137168;27;20881;-79
2023/05/02 13:20:22;;;;;;;0.60;0.20;;;;;;;;;;5136626;27;20823;-80
2023/05/02 13:22:50;;;;;;;0.70;0.20;;;;;;;;;;5143280;27;20450;-78
2023/05/02 13:25:18;;;;;;;0.60;0.10;;;;;;;;;;5143248;27;20525;-79
2023/05/02 13:27:47;;;;;;;0.60;0.20;;;;;;;;;;5138598;27;20525;-78
2023/05/02 13:30:16;;;;;;;0.60;0.13;;;;;;;;;;5135702;27;20536;-78
2023/05/02 13:32:45;;;;;;;0.60;0.10;;;;;;;;;;5135091;27;20486;-79
2023/05/02 13:35:14;;;;;;;0.60;0.20;;;17.80;99.90;;;;;;5137555;27;20464;-78
2023/05/02 13:37:42;;;;;;;0.60;0.20;;;17.80;99.90;;;;;;5136002;27;20441;-80
2023/05/02 13:40:11;;;;;;;0.60;0.10;;;;;;;;;;5137795;27;20442;-79
2023/05/02 13:42:39;;;;;;;0.60;0.20;;;17.70;99.90;;;;;;5138700;27;20442;-82
2023/05/02 13:45:09;;;;;;;0.60;0.20;;;17.70;99.90;;;;;;5136197;27;20914;-79
2023/05/02 13:47:38;;;;;;;0.60;0.40;;;17.70;99.90;;;;;;5139014;27;20505;-81
2023/05/02 13:50:09;;;;;;;0.80;0.47;;;17.60;99.90;;;;;;5140197;27;20419;-81
2023/05/02 13:52:37;;;;;;;0.80;0.60;;;;;;;;;;5136866;27;20514;-78
2023/05/02 13:55:06;;;;;;;0.60;0.20;;;17.70;99.90;;;;;;5137453;27;20445;-79
2023/05/02 13:57:34;;;;;;;0.60;0.20;;;17.70;99.90;;;;;;5136441;27;20434;-81
2023/05/02 14:00:02;;;;;;;0.60;0.13;;;17.70;99.90;;;;;;5135836;28;20448;-79
2023/05/02 14:02:31;;;;;;;0.60;0.10;;;17.70;99.90;;;;;;5135280;28;20445;-80
2023/05/02 14:05:00;;;;;;;0.60;0.10;;;17.80;99.90;;;;;;5136153;28;20472;-79
2023/05/02 14:07:28;;;;;;;0.60;0.20;;;17.90;99.90;;;;;;5135682;28;20944;-80
2023/05/02 14:09:56;;;;;;;0.60;0.20;;;;;;;;;;5136328;28;20438;-80
2023/05/02 14:12:24;;;;;;;0.60;0.10;;;18.00;99.90;;;;;;5125892;27;20835;-80
2023/05/02 14:14:53;;;;;;;0.60;0.10;;;;;;;;;;5115797;28;20823;-80
2023/05/02 14:17:23;;;;;;;2.23;1.70;;;18.20;99.90;;;;;;5117573;28;20553;-82
2023/05/02 14:19:51;;;;;;;0.60;0.10;;;18.30;99.90;;;;;;5116041;28;20449;-79
2023/05/02 14:22:20;;;;;;;0.70;0.30;;;18.30;99.90;;;;;;5119504;28;20495;-78
2023/05/02 14:24:48;;;;;;;0.60;0.20;;;18.30;99.90;;;;;;5120890;28;20534;-80
2023/05/02 14:27:17;;;;;;;0.60;0.17;;;18.20;99.90;;;;;;5119458;28;20485;-79
2023/05/02 14:29:45;;;;;;;0.70;0.40;;;18.10;99.90;;;;;;5122374;28;20446;-79
2023/05/02 14:32:14;;;;;;;3.97;1.67;;;18.10;99.90;;;;;;5123799;28;20482;-79
2023/05/02 14:34:41;;;;;;;0.80;0.50;;;18.10;99.90;;;;;;5122032;28;20994;-79
2023/05/02 14:37:09;;;;;;;0.73;0.30;;;18.30;99.90;;;;;;5120615;28;20449;-81
2023/05/02 14:39:39;;;;;;;1.17;0.53;;;18.40;99.90;;;;;;5121318;28;20443;-80
2023/05/02 14:42:07;;;;;;;0.60;0.10;;;18.50;99.90;;;;;;5119347;28;20954;-79
2023/05/02 14:44:35;;;;;;;0.60;0.20;;;;;;;;;;5119322;28;20475;-78
2023/05/02 14:47:03;;;;;;;1.37;0.63;;;18.40;99.90;;;;;;5121897;28;20488;-79
2023/05/02 14:49:31;;;;;;;0.60;0.20;;;;;;;;;;5120491;28;20552;-78
2023/05/02 14:51:59;;;;;;;0.60;0.10;;;18.20;99.90;;;;;;5119572;28;20454;-79
2023/05/02 14:54:28;;;;;;;3.63;2.30;;;;;;;;;;5125964;28;20478;-78
2023/05/02 14:56:58;;;;;;;4.03;2.33;;;17.90;99.90;;;;;;5124657;28;20768;-77
2023/05/02 14:59:29;;;;;;;1.10;0.20;;;17.90;99.90;;;;;;5122561;28;20496;-78
2023/05/02 15:01:57;;;;;;;0.70;0.47;;;17.90;99.90;;;;;;5122420;28;20986;-78
2023/05/02 15:04:26;;;;;;;0.80;0.30;;;17.90;99.70;;;;;;5121587;28;20451;-77
2023/05/02 15:06:55;;;;;;;0.60;0.20;;;17.90;99.20;;;;;;5120406;28;20443;-78
2023/05/02 15:09:25;;;;;;;0.60;0.20;;;17.90;99.40;;;;;;5121046;28;20572;-79
2023/05/02 15:11:53;;;;;;;0.60;0.10;;;17.90;99.90;;;;;;5121544;28;20457;-80
2023/05/02 15:14:22;;;;;;;0.60;0.10;;;17.80;99.90;;;;;;5126543;27;20516;-82
2023/05/02 15:16:50;;;;;;;0.60;0.10;;;17.80;99.90;;;;;;5140428;27;20449;-80
2023/05/02 15:19:18;;;;;;;1.33;0.30;;;17.70;99.90;;;;;;5143972;27;20445;-80
2023/05/02 15:21:47;;;;;;;0.60;0.20;;;17.70;99.90;;;;;;5141070;27;20449;-80
2023/05/02 15:24:15;;;;;;;0.80;0.23;;;17.60;99.90;;;;;;5143484;27;20515;-78
2023/05/02 15:26:44;;;;;;;0.60;0.30;;;17.60;99.90;;;;;;5142193;27;20802;-79
2023/05/02 15:29:12;;;;;;;0.60;0.10;;;17.50;99.90;;;;;;5124162;27;20454;-78
2023/05/02 15:31:41;;;;;;;1.10;0.87;;;17.50;99.90;;;;;;5118211;28;20457;-80
2023/05/02 15:34:09;;;;;;;1.13;1.03;;;17.50;99.90;;;;;;5119023;28;20476;-80
2023/05/02 15:36:37;;;;;;;0.60;0.10;;;17.50;99.90;;;;;;5118506;28;20450;-80
2023/05/02 15:39:05;;;;;;;0.83;0.73;;;17.70;99.90;;;;;;5118418;27;20440;-79
2023/05/02 15:41:33;;;;;;;0.60;0.20;;;17.80;99.90;;;;;;5138156;27;20459;-83
2023/05/02 15:44:01;;;;;;;0.97;0.97;;;17.90;99.90;;;;;;5137480;27;20474;-80
2023/05/02 15:46:29;;;;;;;3.70;2.83;;;18.00;99.90;;;;;;5138509;27;20444;-81
2023/05/02 15:48:58;;;;;;;0.60;0.20;;;18.10;99.90;;;;;;5137610;27;20464;-81
2023/05/02 15:51:26;;;;;;;0.60;0.10;;;18.30;99.90;;;;;;5138036;27;20456;-78
2023/05/02 15:53:55;;;;;;;0.60;0.20;;;18.50;99.20;;;;;;5146653;27;20867;-78
2023/05/02 15:56:23;;;;;;;0.60;0.20;;;18.70;98.70;;;;;;5145840;27;20444;-78
2023/05/02 15:58:51;;;;;;;0.80;0.60;;;18.80;98.90;;;;;;5137587;27;20452;-79
2023/05/02 16:01:19;;;;;;;0.60;0.10;;;19.00;97.70;;;;;;5138343;27;20446;-80
2023/05/02 16:03:48;;;;;;;0.70;0.40;;;;;;;;;;5138705;27;20468;-82
2023/05/02 16:06:17;;;;;;;0.80;0.40;;;19.30;95.90;;;;;;5138834;27;20919;-81
2023/05/02 16:08:45;;;;;;;1.23;0.70;;;19.50;96.60;;;;;;5135812;27;20442;-79
2023/05/02 16:11:13;;;;;;;0.60;0.33;;;19.60;95.20;;;;;;5138879;27;20446;-79
2023/05/02 16:13:41;;;;;;;0.70;0.30;;;19.70;95.80;;;;;;5139374;27;20470;-79
2023/05/02 16:16:09;;;;;;;0.60;0.20;;;;;;;;;;5139447;27;20488;-79
2023/05/02 16:18:37;;;;;;;0.60;0.17;;;20.20;96.30;;;;;;5140237;27;20451;-79
2023/05/02 16:21:05;;;;;;;0.70;0.30;;;20.30;95.10;;;;;;5142229;27;20442;-79
2023/05/02 16:23:35;;;;;;;0.80;0.40;;;20.60;94.00;;;;;;5146557;27;20539;-82
2023/05/02 16:26:03;;;;;;;0.60;0.10;;;20.60;93.10;;;;;;5151315;27;20455;-80
2023/05/02 16:28:31;;;;;;;1.93;0.70;;;;;;;;;;5149639;27;20438;-77
2023/05/02 16:31:05;;;;;;;0.60;0.10;;;20.80;93.60;;;;;;5137711;27;20448;-79
2023/05/02 16:33:33;;;;;;;0.60;0.20;;;20.90;92.20;;;;;;5139731;27;20517;-80
2023/05/02 16:36:01;;;;;;;0.60;0.10;;;21.00;93.40;;;;;;5138722;27;20479;-78
2023/05/02 16:38:29;;;;;;;0.70;0.30;;;21.20;92.90;;;;;;5138065;27;20947;-78
2023/05/02 16:40:59;;;;;;;0.60;0.20;;;;;;;;;;5143690;27;20655;-79
2023/05/02 16:43:27;;;;;;;0.60;0.10;;;;;;;;;;5144337;27;20484;-79
2023/05/02 16:46:02;;;;;;;0.60;0.10;;;21.30;91.40;;;;;;5139010;27;20447;-80
2023/05/02 16:48:30;;;;;;;0.70;0.30;;;21.30;91.60;;;;;;5152389;27;20459;-78
2023/05/02 16:50:58;;;;;;;0.60;0.20;;;21.40;92.40;;;;;;5124037;27;20444;-79
2023/05/02 16:53:29;;;;;;;0.60;0.20;;;21.40;92.30;;;;;;5128206;27;20520;-78
2023/05/02 16:55:59;;;;;;;0.60;0.10;;;;;;;;;;5138370;27;20847;-80
2023/05/02 16:58:28;;;;;;;0.60;0.10;;;;;;;;;;5119353;28;20445;-81
2023/05/02 17:00:56;;;;;;;0.70;0.30;;;;;;;;;;5119337;28;20483;-81
2023/05/02 17:03:27;;;;;;;0.60;0.10;;;;;;;;;;5121848;28;20462;-81
2023/05/02 17:05:59;;;;;;;6.80;2.20;;;;;;;;;;5120562;28;20495;-82
2023/05/02 17:08:29;;;;;;;1.00;0.40;;;;;;;;;;5119112;28;20430;-81
2023/05/02 17:11:00;;;;;;;0.60;0.20;;;;;;;;;;5119676;28;20901;-80
2023/05/02 17:13:31;;;;;;;0.60;0.10;;;;;;;;;;5123679;28;20532;-80
2023/05/02 17:16:01;;;;;;;0.77;0.27;;;;;;;;;;5123745;28;20530;-79
2023/05/02 17:18:29;;;;;;;0.60;0.20;;;;;;;;;;5119963;27;20464;-81
2023/05/02 17:20:57;;;;;;;0.60;0.10;;;;;;;;;;5123501;28;20439;-80
2023/05/02 17:23:28;;;;;;;1.60;1.50;;;21.40;95.90;;;;;;5120287;28;20495;-80
2023/05/02 17:25:57;;;;;;;0.60;0.20;;;21.40;96.20;;;;;;5117476;28;20939;-82
2023/05/02 17:28:25;;;;;;;0.60;0.20;;;21.40;93.40;;;;;;5123196;28;20486;-79
2023/05/02 17:30:54;;;;;;;0.80;0.60;;;21.20;94.10;;;;;;5140907;27;20512;-79